Time;durP1;ratioP1;P1;durP2;ratioP2;P2;SDS_P1;SDS_P2;PMS_P1;PMS_P2;Temp;Humidity;BMP_temperature;BMP_pressure;BME280_temperature;BME280_humidity;BME280_pressure;Samples;Min_cycle;Max_cycle;Signal;HPM_P1;HPM_P2
2021/12/25 00:00:15;;;;;;;1.45;1.00;;;8.00;99.90;;;;;;5085264;28;20021;-81
2021/12/25 00:02:41;;;;;;;0.88;0.70;;;8.00;99.90;;;;;;5084465;28;20032;-82
2021/12/25 00:05:08;;;;;;;3.90;1.20;;;8.00;99.90;;;;;;5083675;28;20043;-81
2021/12/25 00:07:34;;;;;;;0.98;0.88;;;8.10;99.90;;;;;;5083828;28;20468;-81
2021/12/25 00:10:00;;;;;;;1.23;0.70;;;8.10;99.90;;;;;;5085062;28;20024;-81
2021/12/25 00:12:27;;;;;;;1.40;1.00;;;8.00;99.90;;;;;;5066913;28;20035;-81
2021/12/25 00:14:54;;;;;;;1.35;0.90;;;8.10;99.90;;;;;;5079574;28;20040;-81
2021/12/25 00:17:20;;;;;;;2.28;1.13;;;8.10;99.90;;;;;;5077326;28;20039;-82
2021/12/25 00:19:46;;;;;;;1.05;0.80;;;8.10;99.90;;;;;;5086047;28;20389;-81
2021/12/25 00:22:12;;;;;;;3.78;1.80;;;8.10;99.90;;;;;;5087583;28;20047;-82
2021/12/25 00:24:42;;;;;;;2.10;1.50;;;8.00;99.90;;;;;;5087860;28;20028;-80
2021/12/25 00:27:39;;;;;;;1.33;1.20;;;8.00;99.90;;;;;;5070716;28;20021;-81
2021/12/25 00:30:15;;;;;;;1.67;1.25;;;8.00;99.90;;;;;;5071270;28;20028;-82
2021/12/25 00:35:06;;;;;;;1.38;1.15;;;7.90;99.90;;;;;;5086832;28;20128;-82
2021/12/25 00:37:32;;;;;;;3.00;2.15;;;7.90;99.90;;;;;;5067792;28;20036;-83
2021/12/25 00:39:58;;;;;;;3.83;2.33;;;7.90;99.90;;;;;;5067271;28;20046;-82
2021/12/25 00:42:23;;;;;;;2.95;1.70;;;7.90;99.90;;;;;;5084712;28;20581;-83
2021/12/25 00:44:49;;;;;;;2.33;1.35;;;7.90;99.90;;;;;;5084256;28;20552;-82
2021/12/25 00:47:15;;;;;;;2.35;1.45;;;7.90;99.90;;;;;;5072488;28;20036;-82
2021/12/25 00:49:41;;;;;;;3.60;1.67;;;7.80;99.90;;;;;;5048428;28;20025;-82
2021/12/25 00:52:08;;;;;;;3.53;1.60;;;7.80;99.90;;;;;;5047737;28;20101;-82
2021/12/25 00:54:34;;;;;;;1.77;1.35;;;7.90;99.90;;;;;;5066424;28;20031;-83
2021/12/25 00:57:00;;;;;;;1.92;1.10;;;7.90;99.90;;;;;;5074247;28;20029;-82
2021/12/25 00:59:26;;;;;;;1.77;1.30;;;7.90;99.90;;;;;;5085218;28;20017;-83
2021/12/25 01:01:52;;;;;;;3.00;1.20;;;7.90;99.90;;;;;;5085736;28;20090;-82
2021/12/25 01:04:17;;;;;;;1.77;1.20;;;7.90;99.90;;;;;;5085248;28;20016;-82
2021/12/25 01:06:43;;;;;;;1.63;1.02;;;7.90;99.90;;;;;;5085567;28;20118;-82
2021/12/25 01:09:09;;;;;;;1.70;0.85;;;7.90;99.90;;;;;;5084953;28;20031;-81
2021/12/25 01:11:36;;;;;;;2.90;1.17;;;8.00;99.90;;;;;;5086745;28;20021;-82
2021/12/25 01:22:47;;;;;;;0.88;0.85;;;8.00;99.90;;;;;;5053575;28;20036;-82
2021/12/25 01:25:58;;;;;;;1.90;1.23;;;8.00;99.90;;;;;;5084240;28;20020;-82
2021/12/25 01:30:46;;;;;;;0.90;0.75;;;8.00;99.90;;;;;;5076958;28;20139;-79
2021/12/25 01:38:55;;;;;;;1.40;0.88;;;7.90;99.90;;;;;;4994067;28;20057;-80
2021/12/25 01:49:37;;;;;;;0.98;0.88;;;7.70;99.90;;;;;;5086758;28;20055;-81
2021/12/25 01:52:05;;;;;;;0.68;0.60;;;7.70;99.90;;;;;;5086682;28;20206;-82
2021/12/25 01:54:31;;;;;;;1.05;0.75;;;7.70;99.90;;;;;;5085866;28;20021;-80
2021/12/25 01:56:57;;;;;;;0.50;0.50;;;7.70;99.90;;;;;;5085932;28;20020;-81
2021/12/25 01:59:23;;;;;;;0.95;0.63;;;7.70;99.90;;;;;;5088441;28;20032;-81
2021/12/25 02:01:50;;;;;;;0.85;0.70;;;7.70;99.90;;;;;;5071588;28;20020;-82
2021/12/25 02:04:15;;;;;;;1.27;0.77;;;7.70;99.90;;;;;;5084602;28;20028;-82
2021/12/25 02:06:42;;;;;;;0.65;0.63;;;7.70;99.90;;;;;;5084019;28;20036;-82
2021/12/25 02:09:07;;;;;;;0.77;0.77;;;7.80;99.90;;;;;;5082782;28;20055;-82
2021/12/25 02:11:33;;;;;;;1.63;0.60;;;7.80;99.90;;;;;;5084267;28;20091;-81
2021/12/25 02:13:59;;;;;;;0.47;0.47;;;7.80;99.90;;;;;;5084124;28;20096;-82
2021/12/25 02:16:30;;;;;;;0.70;0.70;;;7.80;99.90;;;;;;5074751;28;20021;-82
2021/12/25 02:19:07;;;;;;;0.70;0.70;;;7.90;99.90;;;;;;5084089;28;20073;-82
2021/12/25 02:21:38;;;;;;;0.95;0.82;;;7.90;99.90;;;;;;5066518;28;20087;-81
2021/12/25 02:24:07;;;;;;;0.68;0.65;;;7.90;99.90;;;;;;5092734;28;20047;-79
2021/12/25 02:26:33;;;;;;;0.68;0.68;;;8.00;99.90;;;;;;5093324;28;20013;-79
2021/12/25 02:28:59;;;;;;;1.30;1.20;;;8.00;99.90;;;;;;5074393;28;20145;-80
2021/12/25 02:31:25;;;;;;;0.93;0.70;;;8.10;99.90;;;;;;5077144;28;20096;-78
2021/12/25 02:33:51;;;;;;;1.65;0.60;;;8.10;99.90;;;;;;5094406;28;20035;-78
2021/12/25 02:36:17;;;;;;;1.27;0.60;;;8.10;99.90;;;;;;5093723;28;20017;-81
2021/12/25 02:38:45;;;;;;;0.57;0.52;;;8.20;99.90;;;;;;5067727;28;20043;-81
2021/12/25 02:41:11;;;;;;;1.00;0.60;;;8.20;99.90;;;;;;5091263;28;20017;-78
2021/12/25 02:43:37;;;;;;;0.30;0.30;;;8.20;99.90;;;;;;5090066;28;20555;-81
2021/12/25 02:46:05;;;;;;;0.80;0.73;;;8.30;99.90;;;;;;5082786;28;20021;-80
2021/12/25 02:48:34;;;;;;;0.57;0.57;;;8.30;99.90;;;;;;5083767;28;20326;-80
2021/12/25 02:51:00;;;;;;;1.13;1.00;;;8.30;99.90;;;;;;5086902;28;20044;-80
2021/12/25 02:53:26;;;;;;;0.70;0.70;;;8.40;99.90;;;;;;5086686;28;20024;-82
2021/12/25 02:55:52;;;;;;;2.38;0.65;;;8.40;99.90;;;;;;5086189;28;20050;-81
2021/12/25 02:58:19;;;;;;;0.40;0.40;;;8.40;99.90;;;;;;5084876;28;20023;-81
2021/12/25 03:00:51;;;;;;;0.70;0.70;;;8.40;99.90;;;;;;5064618;28;20020;-82
2021/12/25 03:03:17;;;;;;;0.40;0.40;;;8.40;99.90;;;;;;5083147;28;20031;-82
2021/12/25 03:05:43;;;;;;;0.55;0.40;;;8.40;99.90;;;;;;5085718;28;20040;-80
2021/12/25 03:08:11;;;;;;;0.40;0.40;;;8.40;99.90;;;;;;5082769;28;20055;-81
2021/12/25 03:10:39;;;;;;;0.50;0.50;;;8.40;99.90;;;;;;5082634;28;20028;-82
2021/12/25 03:15:45;;;;;;;0.40;0.35;;;8.40;99.90;;;;;;5083214;28;20028;-81
2021/12/25 03:18:17;;;;;;;0.47;0.40;;;8.50;99.90;;;;;;5084292;28;20024;-82
2021/12/25 03:20:46;;;;;;;0.50;0.50;;;8.40;99.90;;;;;;5083483;28;20028;-82
2021/12/25 03:23:14;;;;;;;1.85;0.77;;;8.50;99.90;;;;;;5083285;28;20028;-81
2021/12/25 03:25:41;;;;;;;0.88;0.60;;;8.50;99.90;;;;;;5084078;28;20040;-80
2021/12/25 03:28:07;;;;;;;0.60;0.60;;;8.50;99.90;;;;;;5064203;28;20450;-80
2021/12/25 03:30:37;;;;;;;1.95;0.43;;;8.40;99.90;;;;;;5083700;28;20046;-80
2021/12/25 03:33:09;;;;;;;0.50;0.50;;;8.50;99.90;;;;;;5066373;28;20028;-80
2021/12/25 03:35:35;;;;;;;0.40;0.40;;;8.40;99.90;;;;;;5066859;28;20024;-80
2021/12/25 03:38:02;;;;;;;0.57;0.57;;;8.40;99.90;;;;;;5084783;28;20040;-80
2021/12/25 03:40:32;;;;;;;0.47;0.43;;;8.40;99.90;;;;;;5065990;28;20091;-81
2021/12/25 03:42:58;;;;;;;0.82;0.60;;;8.40;99.90;;;;;;5084429;28;20032;-82
2021/12/25 03:45:24;;;;;;;1.20;0.57;;;8.40;99.90;;;;;;5080399;28;20093;-81
2021/12/25 03:48:02;;;;;;;0.50;0.50;;;8.40;99.90;;;;;;5047692;28;20028;-81
2021/12/25 03:53:23;;;;;;;0.73;0.50;;;8.40;99.90;;;;;;5084538;28;20028;-82
2021/12/25 03:58:34;;;;;;;0.50;0.50;;;8.40;99.90;;;;;;5084385;28;20153;-81
2021/12/25 04:01:13;;;;;;;0.77;0.45;;;8.30;99.90;;;;;;5089565;28;20065;-79
2021/12/25 04:04:01;;;;;;;0.68;0.57;;;8.40;99.90;;;;;;5089325;28;20048;-81
2021/12/25 04:06:24;;;;;;;0.55;0.45;;;8.30;99.90;;;;;;5084345;28;20021;-82
2021/12/25 04:08:51;;;;;;;0.40;0.40;;;8.30;99.90;;;;;;5071715;28;20032;-81
2021/12/25 04:11:27;;;;;;;0.40;0.40;;;8.20;99.90;;;;;;5086550;28;20017;-83
2021/12/25 04:13:53;;;;;;;0.25;0.25;;;8.20;99.90;;;;;;5087596;28;20098;-81
2021/12/25 04:16:19;;;;;;;0.30;0.30;;;8.20;99.90;;;;;;5075664;28;20033;-82
2021/12/25 04:18:45;;;;;;;0.40;0.40;;;8.20;99.90;;;;;;5066885;28;20036;-82
2021/12/25 04:21:11;;;;;;;0.40;0.40;;;8.20;99.90;;;;;;5073373;28;20095;-81
2021/12/25 04:23:40;;;;;;;0.47;0.47;;;8.20;99.90;;;;;;5092319;28;20032;-80
2021/12/25 04:26:06;;;;;;;0.63;0.43;;;8.30;99.90;;;;;;5092072;28;20088;-81
2021/12/25 05:01:43;;;;;;;0.30;0.30;;;8.30;99.90;;;;;;5088807;28;20029;-82
2021/12/25 05:04:19;;;;;;;0.32;0.32;;;8.30;99.90;;;;;;5092184;28;20028;-81
2021/12/25 05:06:44;;;;;;;0.40;0.40;;;8.20;99.90;;;;;;5073631;28;20108;-82
2021/12/25 05:09:10;;;;;;;0.38;0.35;;;8.20;99.90;;;;;;5092531;28;20116;-80
2021/12/25 05:11:36;;;;;;;1.20;0.52;;;8.20;99.90;;;;;;5071276;28;20040;-82
2021/12/25 05:14:02;;;;;;;0.47;0.40;;;8.20;99.90;;;;;;5088077;28;20029;-82
2021/12/25 05:16:28;;;;;;;0.25;0.25;;;8.20;99.90;;;;;;5076726;28;20036;-82
2021/12/25 05:18:54;;;;;;;0.38;0.38;;;8.10;99.90;;;;;;5082904;28;20350;-82
2021/12/25 05:21:20;;;;;;;1.23;0.50;;;8.00;99.90;;;;;;5083254;28;20013;-82
2021/12/25 05:23:48;;;;;;;0.40;0.40;;;8.00;99.90;;;;;;5073337;28;20048;-82
2021/12/25 05:26:14;;;;;;;1.38;0.60;;;7.90;99.90;;;;;;5062913;28;20102;-82
2021/12/25 05:28:43;;;;;;;1.65;0.70;;;7.90;99.90;;;;;;5064070;28;20017;-82
2021/12/25 05:31:11;;;;;;;0.70;0.70;;;7.90;99.90;;;;;;5064317;28;20017;-82
2021/12/25 05:33:37;;;;;;;1.40;0.63;;;7.90;99.90;;;;;;5068975;28;20065;-82
2021/12/25 05:36:04;;;;;;;0.45;0.45;;;7.90;99.90;;;;;;5084337;28;20024;-82
2021/12/25 05:38:30;;;;;;;0.63;0.50;;;7.90;99.90;;;;;;5084530;28;20465;-81
2021/12/25 05:40:56;;;;;;;0.77;0.60;;;7.90;99.90;;;;;;5085995;28;20111;-81
2021/12/25 05:43:22;;;;;;;1.10;0.82;;;7.90;99.90;;;;;;5086142;28;20083;-82
2021/12/25 05:45:48;;;;;;;0.75;0.60;;;7.90;99.90;;;;;;5076041;28;20111;-79
2021/12/25 05:48:14;;;;;;;0.60;0.60;;;7.90;99.90;;;;;;5083532;28;20078;-81
2021/12/25 05:50:40;;;;;;;0.70;0.57;;;7.90;99.90;;;;;;5086160;28;20055;-80
2021/12/25 05:53:06;;;;;;;0.50;0.50;;;7.90;99.90;;;;;;5069450;28;20038;-80
2021/12/25 05:55:32;;;;;;;0.60;0.60;;;7.90;99.90;;;;;;5071349;28;20043;-78
2021/12/25 05:57:58;;;;;;;0.40;0.40;;;7.90;99.90;;;;;;5047639;28;20025;-80
2021/12/25 06:00:25;;;;;;;0.98;0.50;;;7.90;99.90;;;;;;5065391;28;20093;-81
2021/12/25 06:02:51;;;;;;;0.60;0.60;;;7.90;99.90;;;;;;5044396;28;20440;-81
2021/12/25 06:05:18;;;;;;;0.50;0.50;;;7.80;99.90;;;;;;5054325;28;20021;-82
2021/12/25 06:07:44;;;;;;;0.30;0.30;;;7.80;99.90;;;;;;5064190;28;20032;-81
2021/12/25 06:10:11;;;;;;;0.40;0.32;;;7.90;99.90;;;;;;5064040;28;20028;-80
2021/12/25 06:12:38;;;;;;;0.47;0.47;;;7.90;99.90;;;;;;5080879;28;20032;-80
2021/12/25 06:15:09;;;;;;;0.50;0.50;;;7.90;99.90;;;;;;5062253;28;20024;-83
2021/12/25 06:17:35;;;;;;;0.60;0.60;;;7.90;99.90;;;;;;5052970;28;20040;-81
2021/12/25 06:20:01;;;;;;;0.43;0.43;;;7.80;99.90;;;;;;5061041;28;20021;-81
2021/12/25 06:22:28;;;;;;;0.98;0.65;;;7.80;99.90;;;;;;5062123;28;20029;-80
2021/12/25 06:24:53;;;;;;;0.90;0.70;;;7.70;99.90;;;;;;5061648;28;20335;-81
2021/12/25 06:27:21;;;;;;;0.50;0.50;;;7.70;99.90;;;;;;5080219;28;20032;-80
2021/12/25 06:29:48;;;;;;;0.47;0.47;;;7.70;99.90;;;;;;5061601;28;20029;-81
2021/12/25 06:32:14;;;;;;;0.47;0.40;;;7.70;99.90;;;;;;5060840;28;20082;-81
2021/12/25 06:34:40;;;;;;;0.95;0.50;;;7.70;99.90;;;;;;5064431;28;20013;-81
2021/12/25 06:37:05;;;;;;;0.63;0.50;;;7.80;99.90;;;;;;5057188;28;20064;-81
2021/12/25 06:39:31;;;;;;;0.63;0.50;;;7.80;99.90;;;;;;5055424;28;20036;-81
2021/12/25 06:41:58;;;;;;;1.20;0.65;;;7.80;99.90;;;;;;5040776;28;20166;-80
2021/12/25 06:44:25;;;;;;;0.75;0.75;;;7.90;99.90;;;;;;5046910;28;20058;-81
2021/12/25 06:46:52;;;;;;;1.75;1.00;;;7.90;99.90;;;;;;5074578;28;20071;-81
2021/12/25 06:49:18;;;;;;;0.50;0.50;;;8.00;99.90;;;;;;5058947;28;20029;-81
2021/12/25 06:51:44;;;;;;;0.90;0.70;;;8.00;99.90;;;;;;5041082;28;20111;-82
2021/12/25 06:54:10;;;;;;;0.90;0.82;;;8.00;99.90;;;;;;5061977;28;20021;-82
2021/12/25 06:56:46;;;;;;;1.05;0.77;;;8.10;99.90;;;;;;5047148;28;20033;-84
2021/12/25 06:59:23;;;;;;;0.77;0.70;;;8.10;99.90;;;;;;5068135;28;20438;-79
2021/12/25 07:01:50;;;;;;;1.17;0.80;;;8.00;99.90;;;;;;5063197;28;20579;-81
2021/12/25 07:04:16;;;;;;;1.00;0.88;;;8.00;99.90;;;;;;5061064;28;20025;-81
2021/12/25 07:06:42;;;;;;;0.77;0.77;;;8.00;99.90;;;;;;5060287;28;20028;-80
2021/12/25 07:09:09;;;;;;;1.40;1.23;;;8.00;99.90;;;;;;5077521;28;20515;-82
2021/12/25 07:11:35;;;;;;;1.70;1.60;;;8.00;99.90;;;;;;5078523;28;20040;-83
2021/12/25 07:14:04;;;;;;;1.20;1.10;;;8.10;99.90;;;;;;5070903;28;20036;-78
2021/12/25 07:16:31;;;;;;;0.90;0.90;;;8.10;99.90;;;;;;5076707;28;20039;-83
2021/12/25 07:18:56;;;;;;;1.10;1.00;;;8.20;99.90;;;;;;5083670;28;20035;-80
2021/12/25 07:21:22;;;;;;;0.73;0.63;;;8.30;99.90;;;;;;5093955;28;20024;-81
2021/12/25 07:23:50;;;;;;;1.45;0.82;;;8.30;99.90;;;;;;5093562;28;20059;-81
2021/12/25 07:26:22;;;;;;;1.80;0.65;;;8.40;99.90;;;;;;5088466;28;20032;-80
2021/12/25 07:28:58;;;;;;;1.45;0.80;;;8.40;99.90;;;;;;5079786;28;20056;-86
2021/12/25 07:31:24;;;;;;;0.70;0.47;;;8.50;99.90;;;;;;5059608;28;20508;-81
2021/12/25 07:33:49;;;;;;;3.00;0.75;;;8.50;99.90;;;;;;5077870;28;20017;-82
2021/12/25 07:36:15;;;;;;;1.27;0.77;;;8.50;99.90;;;;;;5078503;28;20089;-83
2021/12/25 07:38:41;;;;;;;1.65;0.50;;;8.50;99.90;;;;;;5062775;28;20124;-83
2021/12/25 07:41:07;;;;;;;0.77;0.75;;;8.50;99.90;;;;;;5063903;28;20086;-83
2021/12/25 07:43:33;;;;;;;0.60;0.57;;;8.50;99.90;;;;;;5080527;28;20029;-83
2021/12/25 07:45:58;;;;;;;0.77;0.73;;;8.60;99.90;;;;;;5073857;28;20031;-82
2021/12/25 07:48:26;;;;;;;1.35;0.52;;;8.60;99.90;;;;;;5078046;28;20452;-83
2021/12/25 07:50:52;;;;;;;0.80;0.50;;;8.70;99.90;;;;;;5080331;28;20028;-81
2021/12/25 07:53:18;;;;;;;1.67;0.50;;;8.70;99.90;;;;;;5080140;28;20039;-83
2021/12/25 07:55:47;;;;;;;0.68;0.57;;;8.80;99.90;;;;;;5069755;28;20195;-83
2021/12/25 07:58:14;;;;;;;0.60;0.60;;;8.80;99.90;;;;;;5089685;28;20023;-81
2021/12/25 08:00:40;;;;;;;0.45;0.45;;;8.70;99.90;;;;;;5090232;28;20047;-82
2021/12/25 08:03:07;;;;;;;0.43;0.43;;;8.70;99.90;;;;;;5089810;28;20495;-81
2021/12/25 08:05:34;;;;;;;0.47;0.47;;;8.80;99.90;;;;;;5090849;28;20037;-82
2021/12/25 08:07:59;;;;;;;0.93;0.50;;;8.80;99.90;;;;;;5089056;28;20024;-81
2021/12/25 08:10:25;;;;;;;1.45;0.82;;;8.80;99.90;;;;;;5065561;28;20031;-83
2021/12/25 08:12:54;;;;;;;0.73;0.68;;;8.90;99.90;;;;;;5065651;28;20028;-83
2021/12/25 08:15:23;;;;;;;0.82;0.40;;;9.00;99.90;;;;;;5091863;28;20043;-80
2021/12/25 08:17:49;;;;;;;1.08;0.63;;;9.10;99.90;;;;;;5081222;28;20260;-79
2021/12/25 08:20:15;;;;;;;0.60;0.60;;;9.10;99.90;;;;;;5088351;28;20065;-80
2021/12/25 08:22:41;;;;;;;1.25;0.70;;;9.20;99.90;;;;;;5092599;28;20036;-81
2021/12/25 08:25:09;;;;;;;0.93;0.70;;;9.20;99.90;;;;;;5072181;28;20103;-80
2021/12/25 08:27:35;;;;;;;1.52;0.90;;;9.30;99.90;;;;;;5094536;28;20028;-80
2021/12/25 08:30:04;;;;;;;0.98;0.85;;;9.30;99.90;;;;;;5088218;28;20059;-80
2021/12/25 08:32:30;;;;;;;1.02;0.77;;;9.30;99.90;;;;;;5091563;28;20055;-80
2021/12/25 08:34:56;;;;;;;0.75;0.70;;;9.40;99.90;;;;;;5094393;28;20016;-80
2021/12/25 08:37:24;;;;;;;1.08;0.63;;;9.40;99.90;;;;;;5092519;28;20101;-80
2021/12/25 08:39:51;;;;;;;1.38;0.93;;;9.50;99.90;;;;;;5067695;28;20032;-82
2021/12/25 08:42:17;;;;;;;0.80;0.60;;;9.50;99.90;;;;;;5066954;28;20029;-82
2021/12/25 08:47:25;;;;;;;1.95;0.98;;;9.50;99.90;;;;;;5082947;28;20028;-79
2021/12/25 08:49:51;;;;;;;0.73;0.70;;;9.60;99.90;;;;;;5073206;28;20020;-83
2021/12/25 08:52:19;;;;;;;0.77;0.60;;;9.60;99.90;;;;;;5087115;28;20032;-82
2021/12/25 08:54:48;;;;;;;0.98;0.80;;;9.70;99.90;;;;;;5088349;28;20028;-80
2021/12/25 08:57:16;;;;;;;1.23;0.80;;;9.70;99.50;;;;;;5087850;28;20029;-82
2021/12/25 08:59:43;;;;;;;1.25;0.90;;;9.80;99.20;;;;;;5090658;28;20138;-81
2021/12/25 09:02:13;;;;;;;1.63;0.90;;;9.80;99.10;;;;;;5088552;28;20126;-81
2021/12/25 09:04:41;;;;;;;0.85;0.85;;;9.80;99.20;;;;;;5087267;28;20027;-81
2021/12/25 09:07:07;;;;;;;0.90;0.73;;;9.80;99.10;;;;;;5087069;28;20050;-81
2021/12/25 09:09:34;;;;;;;1.08;1.02;;;9.80;99.10;;;;;;5086523;28;20088;-78
2021/12/25 09:12:03;;;;;;;0.85;0.73;;;9.80;99.00;;;;;;5081974;28;20522;-79
2021/12/25 09:14:29;;;;;;;1.00;0.90;;;9.90;98.90;;;;;;5081679;28;20029;-80
2021/12/25 09:16:58;;;;;;;0.77;0.77;;;10.00;98.70;;;;;;5073713;28;20079;-79
2021/12/25 09:19:24;;;;;;;1.02;0.90;;;10.00;98.50;;;;;;5074186;28;20461;-79
2021/12/25 09:21:50;;;;;;;1.65;1.13;;;10.20;98.30;;;;;;5080367;28;20039;-79
2021/12/25 09:24:16;;;;;;;1.48;0.85;;;10.20;98.10;;;;;;5080048;28;20054;-80
2021/12/25 09:26:42;;;;;;;1.25;0.65;;;10.40;97.50;;;;;;5081256;28;20527;-79
2021/12/25 09:29:08;;;;;;;2.38;1.08;;;10.50;97.20;;;;;;5080526;28;20517;-80
2021/12/25 09:31:34;;;;;;;1.95;1.10;;;10.60;96.40;;;;;;5080545;28;20033;-80
2021/12/25 09:34:00;;;;;;;1.20;1.00;;;10.60;96.20;;;;;;5062604;28;20028;-80
2021/12/25 09:36:27;;;;;;;1.10;0.70;;;10.60;96.00;;;;;;5080058;28;20058;-80
2021/12/25 09:38:54;;;;;;;1.10;0.70;;;10.60;95.60;;;;;;5079660;28;20432;-79
2021/12/25 09:41:20;;;;;;;1.45;1.02;;;10.70;95.50;;;;;;5061380;28;20056;-80
2021/12/25 09:43:48;;;;;;;0.85;0.80;;;10.70;95.50;;;;;;5080040;28;20043;-79
2021/12/25 09:46:16;;;;;;;1.05;0.80;;;10.70;95.40;;;;;;5062192;28;20025;-80
2021/12/25 09:48:41;;;;;;;1.33;0.77;;;10.70;95.30;;;;;;5059970;28;20013;-80
2021/12/25 09:51:08;;;;;;;1.85;1.00;;;10.70;95.30;;;;;;5061807;28;20024;-80
2021/12/25 09:53:35;;;;;;;1.60;1.00;;;10.80;95.30;;;;;;5080544;28;20039;-80
2021/12/25 09:56:04;;;;;;;0.80;0.80;;;10.80;95.00;;;;;;5080126;28;20019;-80
2021/12/25 09:58:30;;;;;;;0.90;0.75;;;10.80;94.90;;;;;;5079436;28;20600;-80
2021/12/25 10:00:57;;;;;;;0.70;0.70;;;10.80;95.00;;;;;;5080156;28;20062;-80
2021/12/25 10:03:25;;;;;;;1.40;0.90;;;10.80;94.70;;;;;;5061327;28;20497;-81
2021/12/25 10:05:52;;;;;;;2.17;0.82;;;10.80;94.80;;;;;;5078413;28;20035;-81
2021/12/25 10:08:27;;;;;;;1.48;1.25;;;10.80;94.60;;;;;;5078436;28;20024;-80
2021/12/25 10:11:02;;;;;;;2.70;1.20;;;10.80;94.50;;;;;;5078820;28;20035;-81
2021/12/25 10:13:40;;;;;;;3.13;1.23;;;10.70;94.50;;;;;;5078951;28;20044;-81
2021/12/25 10:16:25;;;;;;;2.70;1.30;;;10.80;94.40;;;;;;5096613;23;20081;-78
2021/12/25 10:18:54;;;;;;;1.05;0.95;;;10.80;94.20;;;;;;5047201;28;20053;-80
2021/12/25 10:21:26;;;;;;;0.77;0.70;;;10.80;94.30;;;;;;5044906;28;20044;-80
2021/12/25 10:24:06;;;;;;;;;;;10.90;94.00;;;;;;5048486;28;20077;-80
2021/12/25 10:26:34;;;;;;;1.08;0.93;;;10.90;93.80;;;;;;5048788;28;19905;-80
2021/12/25 10:29:14;;;;;;;0.98;0.73;;;10.90;93.90;;;;;;5049931;28;20025;-80
2021/12/25 10:31:40;;;;;;;1.42;0.60;;;10.90;93.90;;;;;;5052857;28;20029;-80
2021/12/25 10:34:19;;;;;;;1.58;0.60;;;11.00;93.80;;;;;;5033296;28;20029;-81
2021/12/25 10:36:46;;;;;;;0.73;0.70;;;11.00;93.50;;;;;;5030220;28;20060;-80
2021/12/25 10:39:16;;;;;;;0.63;0.60;;;11.00;93.60;;;;;;5044788;28;20021;-80
2021/12/25 10:42:07;;;;;;;0.40;0.40;;;11.10;93.60;;;;;;5052350;28;20041;-81
2021/12/25 10:44:36;;;;;;;1.42;0.82;;;11.10;93.60;;;;;;5048609;28;20030;-81
2021/12/25 10:47:03;;;;;;;1.00;0.40;;;11.10;93.40;;;;;;5028102;28;20021;-82
2021/12/25 10:49:44;;;;;;;0.52;0.40;;;11.20;93.40;;;;;;5039350;28;20037;-81
2021/12/25 10:52:10;;;;;;;0.50;0.50;;;11.30;93.20;;;;;;5029435;28;20386;-81
2021/12/25 10:54:43;;;;;;;0.70;0.70;;;11.30;92.80;;;;;;5047379;28;20057;-80
2021/12/25 10:57:09;;;;;;;1.98;0.80;;;11.40;92.50;;;;;;5045594;28;20014;-81
2021/12/25 10:59:47;;;;;;;1.20;0.52;;;11.50;92.00;;;;;;5046069;28;20044;-81
2021/12/25 11:02:36;;;;;;;0.80;0.70;;;11.60;92.00;;;;;;5045910;28;20041;-82
2021/12/25 11:05:18;;;;;;;1.15;0.60;;;11.60;91.70;;;;;;5045832;28;20026;-82
2021/12/25 11:07:45;;;;;;;1.05;0.60;;;11.60;91.80;;;;;;5047404;28;20021;-82
2021/12/25 11:10:18;;;;;;;0.60;0.60;;;11.60;91.50;;;;;;5047073;28;20035;-81
2021/12/25 11:12:43;;;;;;;1.30;0.80;;;11.60;91.60;;;;;;5028807;28;20092;-82
2021/12/25 11:15:17;;;;;;;1.02;0.80;;;11.60;91.60;;;;;;5046374;28;20032;-82
2021/12/25 11:18:04;;;;;;;0.50;0.50;;;11.60;91.30;;;;;;5034987;28;20033;-83
2021/12/25 11:20:39;;;;;;;0.65;0.60;;;11.60;91.20;;;;;;5038745;28;20407;-82
2021/12/25 11:23:09;;;;;;;0.60;0.60;;;11.50;91.50;;;;;;5044590;28;20052;-81
2021/12/25 11:25:36;;;;;;;1.15;0.50;;;11.50;91.90;;;;;;5045384;28;20386;-82
2021/12/25 11:28:06;;;;;;;1.45;0.75;;;11.50;91.50;;;;;;5045206;28;20513;-82
2021/12/25 11:30:35;;;;;;;0.90;0.82;;;11.50;91.70;;;;;;5027195;28;20038;-82
2021/12/25 11:33:02;;;;;;;1.98;0.73;;;11.60;91.50;;;;;;5044651;28;20032;-81
2021/12/25 11:35:28;;;;;;;1.13;0.52;;;11.50;91.50;;;;;;5045167;28;20536;-81
2021/12/25 11:37:55;;;;;;;0.93;0.70;;;11.50;91.70;;;;;;5044620;28;20084;-82
2021/12/25 11:40:27;;;;;;;3.00;0.60;;;11.50;91.60;;;;;;5043938;28;20026;-82
2021/12/25 11:42:56;;;;;;;2.95;0.75;;;11.40;91.70;;;;;;5044299;28;20029;-82
2021/12/25 11:45:36;;;;;;;1.83;1.02;;;11.50;91.90;;;;;;5045225;28;20021;-82
2021/12/25 11:48:19;;;;;;;0.80;0.70;;;11.50;91.70;;;;;;5045020;28;20022;-81
2021/12/25 11:50:48;;;;;;;1.45;0.90;;;11.50;91.90;;;;;;5025070;28;20037;-81
2021/12/25 11:53:44;;;;;;;1.60;1.45;;;11.50;91.60;;;;;;5029457;28;20041;-82
2021/12/25 11:58:44;;;;;;;0.70;0.60;;;11.50;91.50;;;;;;5043005;28;20148;-81
2021/12/25 12:01:27;;;;;;;0.88;0.82;;;11.60;91.40;;;;;;5049905;28;20089;-81
2021/12/25 12:03:57;;;;;;;;;;;11.60;91.30;;;;;;5056734;28;20017;-80
2021/12/25 12:06:47;;;;;;;0.80;0.80;;;11.50;91.50;;;;;;5056243;28;19909;-80
2021/12/25 12:09:21;;;;;;;0.93;0.63;;;11.50;91.40;;;;;;5054945;28;20009;-80
2021/12/25 12:11:50;;;;;;;1.30;0.93;;;11.40;91.60;;;;;;5048846;28;20055;-82
2021/12/25 12:14:25;;;;;;;1.05;0.90;;;11.40;91.50;;;;;;5045002;28;20480;-82
2021/12/25 12:17:17;;;;;;;0.88;0.88;;;11.40;91.70;;;;;;5045908;28;20389;-81
2021/12/25 12:19:50;;;;;;;1.05;0.95;;;11.40;91.80;;;;;;5032693;28;20037;-82
2021/12/25 12:22:24;;;;;;;1.42;0.90;;;11.30;92.00;;;;;;5026576;28;20069;-82
2021/12/25 12:28:07;;;;;;;1.27;1.10;;;11.10;92.30;;;;;;5045519;28;20025;-79
2021/12/25 12:30:40;;;;;;;0.95;0.80;;;11.00;92.60;;;;;;5049452;28;20033;-80
2021/12/25 12:33:14;;;;;;;1.85;1.02;;;11.00;92.60;;;;;;5049489;28;20029;-81
2021/12/25 12:35:42;;;;;;;0.93;0.90;;;10.90;92.60;;;;;;5047958;28;20030;-82
2021/12/25 12:38:27;;;;;;;0.70;0.70;;;10.90;92.90;;;;;;5050412;28;20025;-81
2021/12/25 12:41:12;;;;;;;1.25;0.77;;;10.80;93.10;;;;;;5056975;28;20060;-81
2021/12/25 12:44:03;;;;;;;0.93;0.82;;;10.70;93.30;;;;;;5042529;28;20021;-81
2021/12/25 12:46:56;;;;;;;0.70;0.70;;;10.70;93.50;;;;;;5044340;28;20029;-82
2021/12/25 12:49:28;;;;;;;1.02;0.80;;;10.60;93.60;;;;;;5002743;28;20048;-82
2021/12/25 12:52:16;;;;;;;1.07;0.97;;;10.60;93.80;;;;;;5027111;28;20014;-81
2021/12/25 12:54:50;;;;;;;1.00;0.90;;;10.50;94.30;;;;;;5013204;28;20467;-81
2021/12/25 12:57:18;;;;;;;1.55;1.02;;;10.40;94.40;;;;;;5027897;28;20044;-81
2021/12/25 12:59:47;;;;;;;1.45;1.20;;;10.40;94.40;;;;;;5049102;28;20025;-80
2021/12/25 13:02:15;;;;;;;0.90;0.90;;;10.30;94.70;;;;;;5047827;28;20032;-80
2021/12/25 13:04:46;;;;;;;0.88;0.77;;;10.30;94.80;;;;;;5046348;28;20028;-81
2021/12/25 13:07:15;;;;;;;1.90;1.10;;;10.30;94.80;;;;;;5046919;28;20036;-81
2021/12/25 13:09:47;;;;;;;2.15;1.40;;;10.30;95.10;;;;;;5049045;28;20021;-81
2021/12/25 13:12:28;;;;;;;1.67;1.00;;;10.20;95.10;;;;;;5047674;28;20355;-81
2021/12/25 13:15:02;;;;;;;1.55;1.10;;;10.20;95.40;;;;;;5047173;28;20340;-80
2021/12/25 13:17:28;;;;;;;1.42;0.95;;;10.10;95.50;;;;;;5048496;28;20085;-80
2021/12/25 13:19:53;;;;;;;2.25;1.35;;;10.10;95.70;;;;;;5015434;28;20042;-80
2021/12/25 13:22:19;;;;;;;1.52;1.35;;;10.10;95.80;;;;;;5029192;28;20026;-79
2021/12/25 13:24:45;;;;;;;0.80;0.80;;;10.10;95.80;;;;;;5027141;28;20026;-81
2021/12/25 13:27:18;;;;;;;0.88;0.88;;;10.10;95.90;;;;;;5038127;28;20026;-81
2021/12/25 13:29:44;;;;;;;2.22;0.98;;;10.10;96.10;;;;;;5048076;28;20056;-80
2021/12/25 13:32:10;;;;;;;1.63;0.90;;;10.10;96.10;;;;;;5045679;28;20026;-81
2021/12/25 13:34:39;;;;;;;3.38;1.27;;;10.10;96.30;;;;;;5045974;28;20021;-80
2021/12/25 13:37:13;;;;;;;0.98;0.93;;;10.10;96.40;;;;;;5048311;28;20021;-82
2021/12/25 13:39:41;;;;;;;1.13;0.75;;;10.10;96.50;;;;;;5047622;28;20458;-81
2021/12/25 13:42:14;;;;;;;1.75;1.38;;;10.00;96.70;;;;;;5048150;28;20026;-81
2021/12/25 13:44:41;;;;;;;1.42;1.30;;;10.00;96.70;;;;;;5047413;28;20025;-81
2021/12/25 13:47:21;;;;;;;1.05;0.80;;;10.00;96.80;;;;;;5050340;28;20030;-81
2021/12/25 13:50:00;;;;;;;1.45;0.98;;;10.00;97.00;;;;;;5042148;28;20044;-79
2021/12/25 13:52:35;;;;;;;0.90;0.90;;;9.90;97.10;;;;;;5058336;28;20044;-79
2021/12/25 13:55:07;;;;;;;1.98;1.27;;;9.90;97.30;;;;;;5057138;28;20025;-80
2021/12/25 13:57:35;;;;;;;1.50;1.30;;;9.90;97.40;;;;;;5057163;28;20033;-78
2021/12/25 14:00:08;;;;;;;1.42;1.27;;;9.90;97.60;;;;;;5057317;28;20037;-80
2021/12/25 14:02:33;;;;;;;2.92;1.30;;;9.90;97.80;;;;;;5057724;28;20077;-79
2021/12/25 14:04:59;;;;;;;1.77;1.40;;;9.90;97.80;;;;;;5057148;28;20017;-79
2021/12/25 14:07:27;;;;;;;2.00;1.58;;;9.80;97.90;;;;;;5052177;28;20029;-81
2021/12/25 14:09:59;;;;;;;4.35;1.60;;;9.90;98.00;;;;;;5052327;28;20047;-79
2021/12/25 14:12:26;;;;;;;;;;;9.90;98.10;;;;;;5040532;28;20033;-80
2021/12/25 14:14:53;;;;;;;2.10;1.52;;;9.90;98.20;;;;;;5057680;28;19897;-80
2021/12/25 14:17:19;;;;;;;2.53;1.60;;;9.80;98.40;;;;;;5056163;28;20044;-80
2021/12/25 14:19:44;;;;;;;1.80;1.17;;;9.80;98.70;;;;;;5050275;28;20046;-81
2021/12/25 14:22:11;;;;;;;1.58;1.30;;;9.70;99.00;;;;;;5026720;28;20014;-79